sensor_id;sensor_type;location;lat;lon;timestamp;P1;durP1;ratioP1;P2;durP2;ratioP2
38113;SDS011;23926;53.222;6.354;2022-07-10T00:01:24;9.27;;;2.00;;
38113;SDS011;23926;53.222;6.354;2022-07-10T00:03:50;9.10;;;2.08;;
38113;SDS011;23926;53.222;6.354;2022-07-10T00:06:15;8.60;;;2.00;;
38113;SDS011;23926;53.222;6.354;2022-07-10T00:08:41;10.52;;;1.83;;
38113;SDS011;23926;53.222;6.354;2022-07-10T00:11:07;8.18;;;2.00;;
38113;SDS011;23926;53.222;6.354;2022-07-10T00:13:33;10.43;;;1.85;;
38113;SDS011;23926;53.222;6.354;2022-07-10T00:15:59;10.45;;;2.03;;
38113;SDS011;23926;53.222;6.354;2022-07-10T00:18:26;10.57;;;1.98;;
38113;SDS011;23926;53.222;6.354;2022-07-10T00:20:52;8.93;;;1.67;;
38113;SDS011;23926;53.222;6.354;2022-07-10T00:23:18;10.85;;;2.28;;
38113;SDS011;23926;53.222;6.354;2022-07-10T00:25:43;10.50;;;1.92;;
38113;SDS011;23926;53.222;6.354;2022-07-10T00:28:09;10.93;;;2.33;;
38113;SDS011;23926;53.222;6.354;2022-07-10T00:30:34;10.18;;;1.90;;
38113;SDS011;23926;53.222;6.354;2022-07-10T00:32:59;10.13;;;1.85;;
38113;SDS011;23926;53.222;6.354;2022-07-10T00:35:25;9.10;;;2.20;;
38113;SDS011;23926;53.222;6.354;2022-07-10T00:37:50;12.25;;;2.05;;
38113;SDS011;23926;53.222;6.354;2022-07-10T00:40:15;12.88;;;2.33;;
38113;SDS011;23926;53.222;6.354;2022-07-10T00:42:41;15.82;;;2.72;;
38113;SDS011;23926;53.222;6.354;2022-07-10T00:45:06;12.27;;;2.30;;
38113;SDS011;23926;53.222;6.354;2022-07-10T00:47:32;13.52;;;2.35;;
38113;SDS011;23926;53.222;6.354;2022-07-10T00:49:58;12.70;;;2.53;;
38113;SDS011;23926;53.222;6.354;2022-07-10T00:52:23;11.48;;;2.47;;
38113;SDS011;23926;53.222;6.354;2022-07-10T00:54:49;10.13;;;2.00;;
38113;SDS011;23926;53.222;6.354;2022-07-10T00:57:18;13.52;;;2.25;;
38113;SDS011;23926;53.222;6.354;2022-07-10T00:59:45;7.65;;;1.30;;
38113;SDS011;23926;53.222;6.354;2022-07-10T01:02:12;5.85;;;1.25;;
38113;SDS011;23926;53.222;6.354;2022-07-10T01:04:39;5.10;;;1.27;;
38113;SDS011;23926;53.222;6.354;2022-07-10T01:07:04;10.20;;;1.50;;
38113;SDS011;23926;53.222;6.354;2022-07-10T01:09:31;11.98;;;2.72;;
38113;SDS011;23926;53.222;6.354;2022-07-10T01:11:58;8.40;;;2.10;;
38113;SDS011;23926;53.222;6.354;2022-07-10T01:14:25;8.55;;;1.67;;
38113;SDS011;23926;53.222;6.354;2022-07-10T01:16:51;4.80;;;1.27;;
38113;SDS011;23926;53.222;6.354;2022-07-10T01:19:18;7.10;;;1.40;;
38113;SDS011;23926;53.222;6.354;2022-07-10T01:21:43;8.05;;;1.35;;
38113;SDS011;23926;53.222;6.354;2022-07-10T01:24:09;7.28;;;1.60;;
38113;SDS011;23926;53.222;6.354;2022-07-10T01:26:36;7.53;;;1.30;;
38113;SDS011;23926;53.222;6.354;2022-07-10T01:29:04;4.13;;;1.20;;
38113;SDS011;23926;53.222;6.354;2022-07-10T01:31:31;4.45;;;1.35;;
38113;SDS011;23926;53.222;6.354;2022-07-10T01:33:59;10.60;;;1.50;;
38113;SDS011;23926;53.222;6.354;2022-07-10T01:36:25;4.18;;;1.50;;
38113;SDS011;23926;53.222;6.354;2022-07-10T01:38:53;5.40;;;1.10;;
38113;SDS011;23926;53.222;6.354;2022-07-10T01:41:19;10.00;;;1.17;;
38113;SDS011;23926;53.222;6.354;2022-07-10T01:43:45;8.90;;;1.73;;
38113;SDS011;23926;53.222;6.354;2022-07-10T01:46:14;6.25;;;1.73;;
38113;SDS011;23926;53.222;6.354;2022-07-10T01:48:40;8.40;;;1.65;;
38113;SDS011;23926;53.222;6.354;2022-07-10T01:51:07;8.90;;;1.38;;
38113;SDS011;23926;53.222;6.354;2022-07-10T01:53:33;6.03;;;1.58;;
38113;SDS011;23926;53.222;6.354;2022-07-10T01:55:59;8.70;;;1.73;;
38113;SDS011;23926;53.222;6.354;2022-07-10T01:58:27;6.43;;;1.60;;
38113;SDS011;23926;53.222;6.354;2022-07-10T02:00:53;8.88;;;2.28;;
38113;SDS011;23926;53.222;6.354;2022-07-10T02:03:18;6.65;;;1.58;;
38113;SDS011;23926;53.222;6.354;2022-07-10T02:06:02;9.38;;;1.58;;
38113;SDS011;23926;53.222;6.354;2022-07-10T02:08:28;10.80;;;1.88;;
38113;SDS011;23926;53.222;6.354;2022-07-10T02:10:53;10.95;;;1.65;;
38113;SDS011;23926;53.222;6.354;2022-07-10T02:13:19;8.25;;;1.70;;
38113;SDS011;23926;53.222;6.354;2022-07-10T02:15:45;11.38;;;1.45;;
38113;SDS011;23926;53.222;6.354;2022-07-10T02:18:12;11.15;;;2.00;;
38113;SDS011;23926;53.222;6.354;2022-07-10T02:20:38;7.05;;;1.48;;
38113;SDS011;23926;53.222;6.354;2022-07-10T02:23:03;7.68;;;1.80;;
38113;SDS011;23926;53.222;6.354;2022-07-10T02:25:29;8.68;;;1.52;;
38113;SDS011;23926;53.222;6.354;2022-07-10T02:27:54;6.53;;;1.90;;
38113;SDS011;23926;53.222;6.354;2022-07-10T02:30:19;8.35;;;1.50;;
38113;SDS011;23926;53.222;6.354;2022-07-10T02:32:45;7.40;;;1.90;;
38113;SDS011;23926;53.222;6.354;2022-07-10T02:35:10;6.07;;;1.55;;
38113;SDS011;23926;53.222;6.354;2022-07-10T02:37:36;8.88;;;1.60;;
38113;SDS011;23926;53.222;6.354;2022-07-10T02:40:01;16.25;;;1.95;;
38113;SDS011;23926;53.222;6.354;2022-07-10T02:42:27;6.28;;;1.45;;
38113;SDS011;23926;53.222;6.354;2022-07-10T02:44:52;9.05;;;1.58;;
38113;SDS011;23926;53.222;6.354;2022-07-10T02:47:18;9.55;;;1.40;;
38113;SDS011;23926;53.222;6.354;2022-07-10T02:49:43;7.75;;;2.00;;
38113;SDS011;23926;53.222;6.354;2022-07-10T02:52:09;8.90;;;2.10;;
38113;SDS011;23926;53.222;6.354;2022-07-10T02:54:34;7.05;;;1.65;;
38113;SDS011;23926;53.222;6.354;2022-07-10T02:56:59;9.00;;;1.67;;
38113;SDS011;23926;53.222;6.354;2022-07-10T02:59:25;5.90;;;1.58;;
38113;SDS011;23926;53.222;6.354;2022-07-10T03:01:50;11.23;;;1.98;;
38113;SDS011;23926;53.222;6.354;2022-07-10T03:04:16;9.70;;;1.58;;
38113;SDS011;23926;53.222;6.354;2022-07-10T03:06:41;8.07;;;1.77;;
38113;SDS011;23926;53.222;6.354;2022-07-10T03:09:06;5.88;;;1.67;;
38113;SDS011;23926;53.222;6.354;2022-07-10T03:11:32;9.75;;;1.80;;
38113;SDS011;23926;53.222;6.354;2022-07-10T03:13:57;10.77;;;2.05;;
38113;SDS011;23926;53.222;6.354;2022-07-10T03:16:23;7.25;;;1.50;;
38113;SDS011;23926;53.222;6.354;2022-07-10T03:18:48;9.98;;;1.75;;
38113;SDS011;23926;53.222;6.354;2022-07-10T03:21:13;9.63;;;1.67;;
38113;SDS011;23926;53.222;6.354;2022-07-10T03:23:39;6.15;;;1.40;;
38113;SDS011;23926;53.222;6.354;2022-07-10T03:26:05;9.77;;;1.50;;
38113;SDS011;23926;53.222;6.354;2022-07-10T03:28:30;6.68;;;2.03;;
38113;SDS011;23926;53.222;6.354;2022-07-10T03:30:56;9.77;;;1.92;;
38113;SDS011;23926;53.222;6.354;2022-07-10T03:33:22;7.32;;;1.75;;
38113;SDS011;23926;53.222;6.354;2022-07-10T03:35:47;9.88;;;2.17;;
38113;SDS011;23926;53.222;6.354;2022-07-10T03:38:13;14.98;;;2.72;;
38113;SDS011;23926;53.222;6.354;2022-07-10T03:40:38;12.35;;;2.05;;
38113;SDS011;23926;53.222;6.354;2022-07-10T03:43:04;8.23;;;1.52;;
38113;SDS011;23926;53.222;6.354;2022-07-10T03:45:29;7.68;;;1.50;;
38113;SDS011;23926;53.222;6.354;2022-07-10T03:47:54;9.63;;;1.80;;
38113;SDS011;23926;53.222;6.354;2022-07-10T03:50:20;9.77;;;2.22;;
38113;SDS011;23926;53.222;6.354;2022-07-10T03:52:45;8.13;;;1.85;;
38113;SDS011;23926;53.222;6.354;2022-07-10T03:55:11;10.93;;;2.00;;
38113;SDS011;23926;53.222;6.354;2022-07-10T03:57:37;8.80;;;2.20;;
38113;SDS011;23926;53.222;6.354;2022-07-10T04:00:21;8.40;;;2.25;;
38113;SDS011;23926;53.222;6.354;2022-07-10T04:02:48;7.95;;;1.60;;
38113;SDS011;23926;53.222;6.354;2022-07-10T04:05:18;8.02;;;2.00;;
38113;SDS011;23926;53.222;6.354;2022-07-10T04:07:43;12.82;;;2.25;;
38113;SDS011;23926;53.222;6.354;2022-07-10T04:10:09;7.65;;;2.03;;
38113;SDS011;23926;53.222;6.354;2022-07-10T04:12:34;9.23;;;2.35;;
38113;SDS011;23926;53.222;6.354;2022-07-10T04:15:00;9.45;;;2.33;;
38113;SDS011;23926;53.222;6.354;2022-07-10T04:17:25;7.75;;;2.22;;
38113;SDS011;23926;53.222;6.354;2022-07-10T04:19:50;11.32;;;2.35;;
38113;SDS011;23926;53.222;6.354;2022-07-10T04:22:16;8.23;;;1.88;;
38113;SDS011;23926;53.222;6.354;2022-07-10T04:24:41;9.25;;;2.10;;
38113;SDS011;23926;53.222;6.354;2022-07-10T04:27:07;12.38;;;2.20;;
38113;SDS011;23926;53.222;6.354;2022-07-10T04:29:32;14.65;;;2.65;;
38113;SDS011;23926;53.222;6.354;2022-07-10T04:31:57;12.75;;;2.45;;
38113;SDS011;23926;53.222;6.354;2022-07-10T04:34:23;9.25;;;2.15;;
38113;SDS011;23926;53.222;6.354;2022-07-10T04:36:48;14.40;;;2.83;;
38113;SDS011;23926;53.222;6.354;2022-07-10T04:39:14;11.32;;;1.95;;
38113;SDS011;23926;53.222;6.354;2022-07-10T04:41:39;10.90;;;2.33;;
38113;SDS011;23926;53.222;6.354;2022-07-10T04:44:05;5.97;;;2.08;;
38113;SDS011;23926;53.222;6.354;2022-07-10T04:46:30;6.90;;;1.90;;
38113;SDS011;23926;53.222;6.354;2022-07-10T04:48:55;9.75;;;1.92;;
38113;SDS011;23926;53.222;6.354;2022-07-10T04:51:21;13.23;;;2.22;;
38113;SDS011;23926;53.222;6.354;2022-07-10T04:53:48;6.32;;;1.73;;
38113;SDS011;23926;53.222;6.354;2022-07-10T04:56:13;13.82;;;2.55;;
38113;SDS011;23926;53.222;6.354;2022-07-10T04:58:39;7.45;;;2.00;;
38113;SDS011;23926;53.222;6.354;2022-07-10T05:01:04;10.00;;;1.90;;
38113;SDS011;23926;53.222;6.354;2022-07-10T05:03:30;12.50;;;2.13;;
38113;SDS011;23926;53.222;6.354;2022-07-10T05:05:55;10.02;;;2.30;;
38113;SDS011;23926;53.222;6.354;2022-07-10T05:08:20;11.95;;;2.80;;
38113;SDS011;23926;53.222;6.354;2022-07-10T05:10:46;9.82;;;2.25;;
38113;SDS011;23926;53.222;6.354;2022-07-10T05:13:11;8.38;;;2.03;;
38113;SDS011;23926;53.222;6.354;2022-07-10T05:15:37;9.65;;;1.80;;
38113;SDS011;23926;53.222;6.354;2022-07-10T05:18:03;12.52;;;2.03;;
38113;SDS011;23926;53.222;6.354;2022-07-10T05:20:29;8.68;;;2.10;;
38113;SDS011;23926;53.222;6.354;2022-07-10T05:22:54;10.80;;;2.88;;
38113;SDS011;23926;53.222;6.354;2022-07-10T05:25:20;12.45;;;2.47;;
38113;SDS011;23926;53.222;6.354;2022-07-10T05:27:45;8.02;;;1.77;;
38113;SDS011;23926;53.222;6.354;2022-07-10T05:30:11;6.85;;;1.92;;
38113;SDS011;23926;53.222;6.354;2022-07-10T05:32:43;10.15;;;1.88;;
38113;SDS011;23926;53.222;6.354;2022-07-10T05:35:09;6.35;;;2.03;;
38113;SDS011;23926;53.222;6.354;2022-07-10T05:37:35;11.23;;;2.50;;
38113;SDS011;23926;53.222;6.354;2022-07-10T05:40:00;6.28;;;1.85;;
38113;SDS011;23926;53.222;6.354;2022-07-10T05:42:26;8.60;;;1.70;;
38113;SDS011;23926;53.222;6.354;2022-07-10T05:44:51;13.35;;;2.05;;
38113;SDS011;23926;53.222;6.354;2022-07-10T05:47:16;7.18;;;1.70;;
38113;SDS011;23926;53.222;6.354;2022-07-10T05:49:42;5.95;;;1.63;;
38113;SDS011;23926;53.222;6.354;2022-07-10T05:52:07;11.32;;;2.47;;
38113;SDS011;23926;53.222;6.354;2022-07-10T05:54:32;8.82;;;1.63;;
38113;SDS011;23926;53.222;6.354;2022-07-10T05:56:58;7.97;;;1.85;;
38113;SDS011;23926;53.222;6.354;2022-07-10T05:59:23;8.52;;;1.85;;
38113;SDS011;23926;53.222;6.354;2022-07-10T06:01:48;11.20;;;2.60;;
38113;SDS011;23926;53.222;6.354;2022-07-10T06:04:14;13.43;;;2.15;;
38113;SDS011;23926;53.222;6.354;2022-07-10T06:06:39;11.45;;;2.10;;
38113;SDS011;23926;53.222;6.354;2022-07-10T06:09:05;4.80;;;2.22;;
38113;SDS011;23926;53.222;6.354;2022-07-10T06:11:30;9.20;;;1.83;;
38113;SDS011;23926;53.222;6.354;2022-07-10T06:13:55;6.88;;;2.92;;
38113;SDS011;23926;53.222;6.354;2022-07-10T06:16:21;4.30;;;2.03;;
38113;SDS011;23926;53.222;6.354;2022-07-10T06:18:48;5.82;;;1.70;;
38113;SDS011;23926;53.222;6.354;2022-07-10T06:21:14;6.38;;;1.80;;
38113;SDS011;23926;53.222;6.354;2022-07-10T06:23:39;7.28;;;1.58;;
38113;SDS011;23926;53.222;6.354;2022-07-10T06:26:04;4.32;;;1.48;;
38113;SDS011;23926;53.222;6.354;2022-07-10T06:28:30;5.88;;;2.15;;
38113;SDS011;23926;53.222;6.354;2022-07-10T06:30:55;5.68;;;1.50;;
38113;SDS011;23926;53.222;6.354;2022-07-10T06:33:20;7.47;;;1.38;;
38113;SDS011;23926;53.222;6.354;2022-07-10T06:35:46;6.43;;;1.42;;
38113;SDS011;23926;53.222;6.354;2022-07-10T06:38:12;5.88;;;1.52;;
38113;SDS011;23926;53.222;6.354;2022-07-10T06:40:37;3.75;;;1.40;;
38113;SDS011;23926;53.222;6.354;2022-07-10T06:43:03;5.78;;;1.50;;
38113;SDS011;23926;53.222;6.354;2022-07-10T06:45:28;9.32;;;2.00;;
38113;SDS011;23926;53.222;6.354;2022-07-10T06:47:54;7.22;;;1.60;;
38113;SDS011;23926;53.222;6.354;2022-07-10T06:50:24;5.65;;;1.80;;
38113;SDS011;23926;53.222;6.354;2022-07-10T06:52:51;10.95;;;2.70;;
38113;SDS011;23926;53.222;6.354;2022-07-10T06:55:20;6.53;;;2.13;;
38113;SDS011;23926;53.222;6.354;2022-07-10T06:57:45;10.25;;;2.20;;
38113;SDS011;23926;53.222;6.354;2022-07-10T07:00:10;12.90;;;2.45;;
38113;SDS011;23926;53.222;6.354;2022-07-10T07:02:36;9.45;;;2.20;;
38113;SDS011;23926;53.222;6.354;2022-07-10T07:05:03;4.88;;;1.60;;
38113;SDS011;23926;53.222;6.354;2022-07-10T07:07:28;6.75;;;1.95;;
38113;SDS011;23926;53.222;6.354;2022-07-10T07:09:54;10.15;;;2.05;;
38113;SDS011;23926;53.222;6.354;2022-07-10T07:12:19;9.93;;;2.33;;
38113;SDS011;23926;53.222;6.354;2022-07-10T07:14:45;7.38;;;2.60;;
38113;SDS011;23926;53.222;6.354;2022-07-10T07:17:10;9.70;;;2.40;;
38113;SDS011;23926;53.222;6.354;2022-07-10T07:19:38;7.10;;;1.88;;
38113;SDS011;23926;53.222;6.354;2022-07-10T07:25:20;6.80;;;1.73;;
38113;SDS011;23926;53.222;6.354;2022-07-10T07:27:46;5.95;;;1.75;;
38113;SDS011;23926;53.222;6.354;2022-07-10T07:30:13;10.10;;;2.20;;
38113;SDS011;23926;53.222;6.354;2022-07-10T07:32:40;4.70;;;1.70;;
38113;SDS011;23926;53.222;6.354;2022-07-10T07:35:06;7.95;;;1.98;;
38113;SDS011;23926;53.222;6.354;2022-07-10T07:40:02;3.17;;;1.00;;
38113;SDS011;23926;53.222;6.354;2022-07-10T07:42:29;7.55;;;1.70;;
38113;SDS011;23926;53.222;6.354;2022-07-10T07:44:54;5.82;;;1.17;;
38113;SDS011;23926;53.222;6.354;2022-07-10T07:47:20;4.97;;;1.48;;
38113;SDS011;23926;53.222;6.354;2022-07-10T07:49:45;7.40;;;1.30;;
38113;SDS011;23926;53.222;6.354;2022-07-10T07:52:11;5.72;;;1.20;;
38113;SDS011;23926;53.222;6.354;2022-07-10T07:54:36;3.75;;;1.45;;
38113;SDS011;23926;53.222;6.354;2022-07-10T07:57:02;5.28;;;1.90;;
38113;SDS011;23926;53.222;6.354;2022-07-10T07:59:29;3.67;;;1.20;;
38113;SDS011;23926;53.222;6.354;2022-07-10T08:01:54;3.90;;;1.00;;
38113;SDS011;23926;53.222;6.354;2022-07-10T08:04:20;3.53;;;1.83;;
38113;SDS011;23926;53.222;6.354;2022-07-10T08:06:45;4.65;;;1.40;;
38113;SDS011;23926;53.222;6.354;2022-07-10T08:09:10;5.43;;;1.63;;
38113;SDS011;23926;53.222;6.354;2022-07-10T08:11:36;6.05;;;1.50;;
38113;SDS011;23926;53.222;6.354;2022-07-10T08:14:01;2.63;;;1.10;;
38113;SDS011;23926;53.222;6.354;2022-07-10T08:16:27;6.85;;;1.10;;
38113;SDS011;23926;53.222;6.354;2022-07-10T08:18:52;5.60;;;1.08;;
38113;SDS011;23926;53.222;6.354;2022-07-10T08:21:18;4.95;;;1.92;;
38113;SDS011;23926;53.222;6.354;2022-07-10T08:23:43;5.22;;;1.70;;
38113;SDS011;23926;53.222;6.354;2022-07-10T08:26:08;9.25;;;1.60;;
38113;SDS011;23926;53.222;6.354;2022-07-10T08:28:34;10.27;;;2.00;;
38113;SDS011;23926;53.222;6.354;2022-07-10T08:30:59;10.95;;;2.50;;
38113;SDS011;23926;53.222;6.354;2022-07-10T08:33:26;8.75;;;2.33;;
38113;SDS011;23926;53.222;6.354;2022-07-10T08:35:51;4.70;;;2.00;;
38113;SDS011;23926;53.222;6.354;2022-07-10T08:38:18;5.40;;;2.63;;
38113;SDS011;23926;53.222;6.354;2022-07-10T08:40:43;6.15;;;2.47;;
38113;SDS011;23926;53.222;6.354;2022-07-10T08:43:10;6.45;;;2.50;;
38113;SDS011;23926;53.222;6.354;2022-07-10T08:45:36;9.20;;;2.83;;
38113;SDS011;23926;53.222;6.354;2022-07-10T08:48:02;8.73;;;2.65;;
38113;SDS011;23926;53.222;6.354;2022-07-10T08:50:31;11.70;;;3.30;;
38113;SDS011;23926;53.222;6.354;2022-07-10T08:53:04;11.70;;;2.90;;
38113;SDS011;23926;53.222;6.354;2022-07-10T08:55:33;10.27;;;3.10;;
38113;SDS011;23926;53.222;6.354;2022-07-10T08:58:01;6.05;;;2.45;;
38113;SDS011;23926;53.222;6.354;2022-07-10T09:00:29;9.63;;;2.97;;
38113;SDS011;23926;53.222;6.354;2022-07-10T09:02:55;10.30;;;2.83;;
38113;SDS011;23926;53.222;6.354;2022-07-10T09:05:21;8.02;;;2.90;;
38113;SDS011;23926;53.222;6.354;2022-07-10T09:07:51;5.10;;;2.17;;
38113;SDS011;23926;53.222;6.354;2022-07-10T09:10:18;8.73;;;2.65;;
38113;SDS011;23926;53.222;6.354;2022-07-10T09:12:58;9.52;;;3.50;;
38113;SDS011;23926;53.222;6.354;2022-07-10T09:15:26;7.25;;;3.33;;
38113;SDS011;23926;53.222;6.354;2022-07-10T09:18:04;13.63;;;3.67;;
38113;SDS011;23926;53.222;6.354;2022-07-10T09:20:34;11.75;;;3.80;;
38113;SDS011;23926;53.222;6.354;2022-07-10T09:23:14;7.90;;;3.03;;
38113;SDS011;23926;53.222;6.354;2022-07-10T09:25:44;15.90;;;4.40;;
38113;SDS011;23926;53.222;6.354;2022-07-10T09:28:10;10.05;;;3.20;;
38113;SDS011;23926;53.222;6.354;2022-07-10T09:30:37;7.95;;;3.45;;
38113;SDS011;23926;53.222;6.354;2022-07-10T09:36:32;12.10;;;3.63;;
38113;SDS011;23926;53.222;6.354;2022-07-10T09:41:14;13.18;;;3.83;;
38113;SDS011;23926;53.222;6.354;2022-07-10T09:43:44;7.38;;;3.28;;
38113;SDS011;23926;53.222;6.354;2022-07-10T09:46:13;8.40;;;3.03;;
38113;SDS011;23926;53.222;6.354;2022-07-10T09:48:39;7.78;;;2.83;;
38113;SDS011;23926;53.222;6.354;2022-07-10T09:51:06;10.88;;;4.00;;
38113;SDS011;23926;53.222;6.354;2022-07-10T09:53:40;8.10;;;2.97;;
38113;SDS011;23926;53.222;6.354;2022-07-10T09:56:07;11.13;;;3.42;;
38113;SDS011;23926;53.222;6.354;2022-07-10T09:58:34;6.90;;;3.05;;
38113;SDS011;23926;53.222;6.354;2022-07-10T10:01:03;13.82;;;3.47;;
38113;SDS011;23926;53.222;6.354;2022-07-10T10:03:34;10.32;;;3.67;;
38113;SDS011;23926;53.222;6.354;2022-07-10T10:08:32;6.05;;;3.17;;
38113;SDS011;23926;53.222;6.354;2022-07-10T10:11:19;10.55;;;4.43;;
38113;SDS011;23926;53.222;6.354;2022-07-10T10:13:51;10.50;;;4.03;;
38113;SDS011;23926;53.222;6.354;2022-07-10T10:16:18;12.27;;;3.30;;
38113;SDS011;23926;53.222;6.354;2022-07-10T10:18:45;9.40;;;4.40;;
38113;SDS011;23926;53.222;6.354;2022-07-10T10:21:37;8.52;;;3.45;;
38113;SDS011;23926;53.222;6.354;2022-07-10T10:24:04;14.48;;;4.03;;
38113;SDS011;23926;53.222;6.354;2022-07-10T10:26:29;9.48;;;3.63;;
38113;SDS011;23926;53.222;6.354;2022-07-10T10:28:56;9.38;;;4.32;;
38113;SDS011;23926;53.222;6.354;2022-07-10T10:31:24;12.15;;;3.63;;
38113;SDS011;23926;53.222;6.354;2022-07-10T10:33:53;5.32;;;3.17;;
38113;SDS011;23926;53.222;6.354;2022-07-10T10:39:02;9.50;;;3.15;;
38113;SDS011;23926;53.222;6.354;2022-07-10T10:41:30;4.57;;;2.63;;
38113;SDS011;23926;53.222;6.354;2022-07-10T10:49:16;9.27;;;2.80;;
38113;SDS011;23926;53.222;6.354;2022-07-10T10:52:03;9.90;;;2.92;;
38113;SDS011;23926;53.222;6.354;2022-07-10T10:54:59;7.22;;;2.20;;
38113;SDS011;23926;53.222;6.354;2022-07-10T10:59:57;5.15;;;2.20;;
38113;SDS011;23926;53.222;6.354;2022-07-10T11:02:31;9.25;;;2.50;;
38113;SDS011;23926;53.222;6.354;2022-07-10T11:07:53;8.23;;;2.40;;
38113;SDS011;23926;53.222;6.354;2022-07-10T11:10:26;9.75;;;2.40;;
38113;SDS011;23926;53.222;6.354;2022-07-10T11:13:12;7.70;;;3.03;;
38113;SDS011;23926;53.222;6.354;2022-07-10T11:15:45;5.57;;;2.78;;
38113;SDS011;23926;53.222;6.354;2022-07-10T11:18:15;8.52;;;2.75;;
38113;SDS011;23926;53.222;6.354;2022-07-10T11:20:43;6.28;;;2.90;;
38113;SDS011;23926;53.222;6.354;2022-07-10T11:26:08;8.05;;;2.75;;
38113;SDS011;23926;53.222;6.354;2022-07-10T11:28:52;7.82;;;3.25;;
38113;SDS011;23926;53.222;6.354;2022-07-10T11:31:22;7.50;;;2.80;;
38113;SDS011;23926;53.222;6.354;2022-07-10T11:33:49;6.90;;;2.72;;
38113;SDS011;23926;53.222;6.354;2022-07-10T11:36:19;4.90;;;2.35;;
38113;SDS011;23926;53.222;6.354;2022-07-10T11:39:01;7.32;;;2.65;;
38113;SDS011;23926;53.222;6.354;2022-07-10T11:41:30;9.82;;;2.90;;
38113;SDS011;23926;53.222;6.354;2022-07-10T11:43:56;7.68;;;2.80;;
38113;SDS011;23926;53.222;6.354;2022-07-10T11:46:24;8.60;;;2.97;;
38113;SDS011;23926;53.222;6.354;2022-07-10T11:48:51;8.18;;;3.30;;
38113;SDS011;23926;53.222;6.354;2022-07-10T11:51:25;11.32;;;3.40;;
38113;SDS011;23926;53.222;6.354;2022-07-10T11:53:56;6.40;;;3.40;;
38113;SDS011;23926;53.222;6.354;2022-07-10T11:56:30;10.38;;;3.90;;
38113;SDS011;23926;53.222;6.354;2022-07-10T11:59:00;6.75;;;3.25;;
38113;SDS011;23926;53.222;6.354;2022-07-10T12:01:29;11.55;;;4.25;;
38113;SDS011;23926;53.222;6.354;2022-07-10T12:04:02;9.70;;;3.65;;
38113;SDS011;23926;53.222;6.354;2022-07-10T12:06:29;11.02;;;3.95;;
38113;SDS011;23926;53.222;6.354;2022-07-10T12:08:56;7.97;;;3.45;;
38113;SDS011;23926;53.222;6.354;2022-07-10T12:11:27;14.52;;;3.67;;
38113;SDS011;23926;53.222;6.354;2022-07-10T12:13:52;9.93;;;3.50;;
38113;SDS011;23926;53.222;6.354;2022-07-10T12:16:19;10.63;;;3.13;;
38113;SDS011;23926;53.222;6.354;2022-07-10T12:18:46;9.25;;;3.55;;
38113;SDS011;23926;53.222;6.354;2022-07-10T12:21:13;7.65;;;3.38;;
38113;SDS011;23926;53.222;6.354;2022-07-10T12:23:39;7.18;;;3.45;;
38113;SDS011;23926;53.222;6.354;2022-07-10T12:26:09;6.85;;;3.20;;
38113;SDS011;23926;53.222;6.354;2022-07-10T12:28:55;12.60;;;4.35;;
38113;SDS011;23926;53.222;6.354;2022-07-10T12:31:24;14.30;;;4.65;;
38113;SDS011;23926;53.222;6.354;2022-07-10T12:33:55;12.73;;;3.17;;
38113;SDS011;23926;53.222;6.354;2022-07-10T12:36:27;7.60;;;2.95;;
38113;SDS011;23926;53.222;6.354;2022-07-10T12:39:09;7.57;;;3.42;;
38113;SDS011;23926;53.222;6.354;2022-07-10T12:41:35;9.25;;;2.78;;
38113;SDS011;23926;53.222;6.354;2022-07-10T12:44:42;5.57;;;2.92;;
38113;SDS011;23926;53.222;6.354;2022-07-10T12:49:55;11.23;;;3.05;;
38113;SDS011;23926;53.222;6.354;2022-07-10T12:52:31;13.23;;;3.63;;
38113;SDS011;23926;53.222;6.354;2022-07-10T12:55:21;9.10;;;3.15;;
38113;SDS011;23926;53.222;6.354;2022-07-10T13:00:18;7.03;;;3.58;;
38113;SDS011;23926;53.222;6.354;2022-07-10T13:02:45;4.22;;;2.72;;
38113;SDS011;23926;53.222;6.354;2022-07-10T13:05:25;9.43;;;3.22;;
38113;SDS011;23926;53.222;6.354;2022-07-10T13:10:45;7.60;;;3.60;;
38113;SDS011;23926;53.222;6.354;2022-07-10T13:13:28;8.43;;;3.20;;
38113;SDS011;23926;53.222;6.354;2022-07-10T13:15:54;10.43;;;4.00;;
38113;SDS011;23926;53.222;6.354;2022-07-10T13:18:23;11.60;;;3.35;;
38113;SDS011;23926;53.222;6.354;2022-07-10T13:20:54;11.00;;;4.43;;
38113;SDS011;23926;53.222;6.354;2022-07-10T13:23:21;9.57;;;3.35;;
38113;SDS011;23926;53.222;6.354;2022-07-10T13:25:57;9.10;;;2.67;;
38113;SDS011;23926;53.222;6.354;2022-07-10T13:28:24;9.02;;;3.17;;
38113;SDS011;23926;53.222;6.354;2022-07-10T13:30:49;6.55;;;3.00;;
38113;SDS011;23926;53.222;6.354;2022-07-10T13:33:15;6.97;;;2.70;;
38113;SDS011;23926;53.222;6.354;2022-07-10T13:35:40;11.68;;;2.80;;
38113;SDS011;23926;53.222;6.354;2022-07-10T13:38:06;11.70;;;3.20;;
38113;SDS011;23926;53.222;6.354;2022-07-10T13:40:33;17.42;;;3.60;;
38113;SDS011;23926;53.222;6.354;2022-07-10T13:43:00;8.70;;;3.03;;
38113;SDS011;23926;53.222;6.354;2022-07-10T13:45:26;8.07;;;3.20;;
38113;SDS011;23926;53.222;6.354;2022-07-10T13:48:01;7.97;;;2.80;;
38113;SDS011;23926;53.222;6.354;2022-07-10T13:50:28;7.88;;;2.63;;
38113;SDS011;23926;53.222;6.354;2022-07-10T13:52:53;9.57;;;2.90;;
38113;SDS011;23926;53.222;6.354;2022-07-10T13:55:18;8.25;;;2.40;;
38113;SDS011;23926;53.222;6.354;2022-07-10T13:57:44;4.50;;;2.45;;
38113;SDS011;23926;53.222;6.354;2022-07-10T14:00:09;10.02;;;2.60;;
38113;SDS011;23926;53.222;6.354;2022-07-10T14:02:36;3.95;;;2.25;;
38113;SDS011;23926;53.222;6.354;2022-07-10T14:05:01;11.45;;;2.50;;
38113;SDS011;23926;53.222;6.354;2022-07-10T14:07:27;4.18;;;2.00;;
38113;SDS011;23926;53.222;6.354;2022-07-10T14:09:53;7.45;;;2.30;;
38113;SDS011;23926;53.222;6.354;2022-07-10T14:12:19;7.40;;;2.20;;
38113;SDS011;23926;53.222;6.354;2022-07-10T14:14:44;6.93;;;1.85;;
38113;SDS011;23926;53.222;6.354;2022-07-10T14:17:10;5.70;;;1.85;;
38113;SDS011;23926;53.222;6.354;2022-07-10T14:19:35;6.00;;;1.73;;
38113;SDS011;23926;53.222;6.354;2022-07-10T14:22:01;2.75;;;1.90;;
38113;SDS011;23926;53.222;6.354;2022-07-10T14:24:27;4.97;;;1.65;;
38113;SDS011;23926;53.222;6.354;2022-07-10T14:26:52;5.78;;;1.85;;
38113;SDS011;23926;53.222;6.354;2022-07-10T14:29:18;3.72;;;1.77;;
38113;SDS011;23926;53.222;6.354;2022-07-10T14:31:44;5.70;;;1.70;;
38113;SDS011;23926;53.222;6.354;2022-07-10T14:34:12;3.55;;;1.70;;
38113;SDS011;23926;53.222;6.354;2022-07-10T14:36:38;3.33;;;1.70;;
38113;SDS011;23926;53.222;6.354;2022-07-10T14:39:03;5.05;;;1.80;;
38113;SDS011;23926;53.222;6.354;2022-07-10T14:41:29;5.80;;;1.70;;
38113;SDS011;23926;53.222;6.354;2022-07-10T14:43:54;5.85;;;1.95;;
38113;SDS011;23926;53.222;6.354;2022-07-10T14:46:21;4.75;;;2.13;;
38113;SDS011;23926;53.222;6.354;2022-07-10T14:48:46;4.38;;;2.63;;
38113;SDS011;23926;53.222;6.354;2022-07-10T14:51:11;3.10;;;2.15;;
38113;SDS011;23926;53.222;6.354;2022-07-10T14:53:37;6.57;;;2.30;;
38113;SDS011;23926;53.222;6.354;2022-07-10T14:56:05;5.13;;;2.15;;
38113;SDS011;23926;53.222;6.354;2022-07-10T14:58:31;5.50;;;2.38;;
38113;SDS011;23926;53.222;6.354;2022-07-10T15:00:57;8.10;;;2.72;;
38113;SDS011;23926;53.222;6.354;2022-07-10T15:03:22;5.63;;;2.53;;
38113;SDS011;23926;53.222;6.354;2022-07-10T15:05:48;8.93;;;2.53;;
38113;SDS011;23926;53.222;6.354;2022-07-10T15:08:18;8.18;;;2.38;;
38113;SDS011;23926;53.222;6.354;2022-07-10T15:10:44;4.63;;;2.25;;
38113;SDS011;23926;53.222;6.354;2022-07-10T15:13:11;6.43;;;2.55;;
38113;SDS011;23926;53.222;6.354;2022-07-10T15:15:36;5.05;;;2.53;;
38113;SDS011;23926;53.222;6.354;2022-07-10T15:18:02;4.45;;;2.38;;
38113;SDS011;23926;53.222;6.354;2022-07-10T15:20:27;5.40;;;2.60;;
38113;SDS011;23926;53.222;6.354;2022-07-10T15:22:53;10.20;;;2.85;;